Time,TemperatureF,DewpointF,PressureIn,WindDirection,WindDirectionDegrees,WindSpeedMPH,WindSpeedGustMPH,Humidity,HourlyPrecipIn,Conditions,Clouds,dailyrainin,SoftwareType,DateUTC
2013-01-16 00:00:00,22.8,14.5,30.08,SW,228,5.0,5.0,70,0.00,,,0.00,Wunderground v.1.15,2013-01-16 06:00:00,
2013-01-16 00:10:00,23.3,14.6,30.07,SW,229,6.0,6.0,69,0.00,,,0.00,Wunderground v.1.15,2013-01-16 06:10:00,
2013-01-16 00:20:00,23.8,15.4,30.07,SW,226,6.0,6.0,70,0.00,,,0.00,Wunderground v.1.15,2013-01-16 06:20:00,
2013-01-16 00:30:00,24.3,15.9,30.06,SW,234,6.0,6.0,70,0.00,,,0.00,Wunderground v.1.15,2013-01-16 06:30:00,
2013-01-16 00:40:00,24.8,16.7,30.06,WSW,242,6.0,8.0,71,0.00,,,0.00,Wunderground v.1.15,2013-01-16 06:40:00,
2013-01-16 00:50:00,25.2,17.4,30.06,WSW,250,7.0,7.0,72,0.00,,,0.00,Wunderground v.1.15,2013-01-16 06:50:00,
2013-01-16 00:55:00,25.3,17.9,30.06,WSW,253,6.0,7.0,73,0.00,,,0.00,Wunderground v.1.15,2013-01-16 06:55:00,
2013-01-16 01:00:00,25.5,18.4,30.06,WSW,249,7.0,7.0,74,0.00,,,0.00,Wunderground v.1.15,2013-01-16 07:00:00,
2013-01-16 01:10:00,25.9,19.1,30.05,WSW,247,6.0,6.0,75,0.00,,,0.00,Wunderground v.1.15,2013-01-16 07:10:00,
2013-01-16 01:20:00,26.3,19.8,30.05,WSW,247,5.0,5.0,76,0.00,,,0.00,Wunderground v.1.15,2013-01-16 07:20:00,
2013-01-16 01:30:00,26.7,20.1,30.05,SW,235,5.0,6.0,76,0.00,,,0.00,Wunderground v.1.15,2013-01-16 07:30:00,
2013-01-16 01:35:00,26.9,20.7,30.04,SW,235,5.0,6.0,77,0.00,,,0.00,Wunderground v.1.15,2013-01-16 07:35:00,
2013-01-16 01:45:00,27.7,22.0,30.04,SW,234,7.0,7.0,79,0.00,,,0.00,Wunderground v.1.15,2013-01-16 07:45:00,
2013-01-16 01:50:00,28.2,22.5,30.03,WSW,244,7.0,8.0,79,0.00,,,0.00,Wunderground v.1.15,2013-01-16 07:50:00,
2013-01-16 02:00:00,28.7,23.0,30.03,WSW,237,6.0,6.0,79,0.00,,,0.00,Wunderground v.1.15,2013-01-16 08:00:00,
2013-01-16 02:10:00,29.2,23.8,30.03,WSW,243,6.0,6.0,80,0.00,,,0.00,Wunderground v.1.15,2013-01-16 08:10:00,
2013-01-16 02:15:00,29.5,24.1,30.02,WSW,242,6.0,11.0,80,0.00,,,0.00,Wunderground v.1.15,2013-01-16 08:15:00,
2013-01-16 02:25:00,30.0,24.9,30.03,WSW,242,7.0,11.0,81,0.00,,,0.00,Wunderground v.1.15,2013-01-16 08:25:00,
2013-01-16 02:30:00,30.2,25.1,30.03,WSW,243,7.0,7.0,81,0.00,,,0.00,Wunderground v.1.15,2013-01-16 08:30:00,
2013-01-16 02:40:00,30.6,25.5,30.02,WSW,247,8.0,11.0,81,0.00,,,0.00,Wunderground v.1.15,2013-01-16 08:40:00,
2013-01-16 02:50:00,31.1,25.7,30.01,WSW,246,8.0,11.0,80,0.00,,,0.00,Wunderground v.1.15,2013-01-16 08:50:00,
2013-01-16 03:00:00,31.2,25.4,30.02,WSW,245,8.0,8.0,79,0.00,,,0.00,Wunderground v.1.15,2013-01-16 09:00:00,
2013-01-16 03:10:00,31.3,25.5,30.01,WSW,252,8.0,11.0,79,0.00,,,0.00,Wunderground v.1.15,2013-01-16 09:10:00,
2013-01-16 03:20:00,31.4,25.6,30.01,West,262,8.0,11.0,79,0.00,,,0.00,Wunderground v.1.15,2013-01-16 09:20:00,
2013-01-16 03:25:00,31.6,26.1,30.00,WSW,257,8.0,11.0,80,0.00,,,0.00,Wunderground v.1.15,2013-01-16 09:25:00,
2013-01-16 03:35:00,32.1,26.3,30.01,West,265,9.0,12.0,79,0.00,,,0.00,Wunderground v.1.15,2013-01-16 09:35:00,
2013-01-16 03:40:00,32.4,26.6,30.01,West,263,10.0,11.0,79,0.00,,,0.00,Wunderground v.1.15,2013-01-16 09:40:00,
2013-01-16 03:50:00,32.5,26.7,30.01,West,273,9.0,9.0,79,0.00,,,0.00,Wunderground v.1.15,2013-01-16 09:50:00,
2013-01-16 04:00:00,32.5,26.7,30.01,West,267,8.0,11.0,79,0.00,,,0.00,Wunderground v.1.15,2013-01-16 10:00:00,
2013-01-16 04:10:00,32.8,27.3,30.01,West,268,7.0,7.0,80,0.00,,,0.00,Wunderground v.1.15,2013-01-16 10:10:00,
2013-01-16 04:20:00,33.7,28.2,30.01,West,267,8.0,11.0,80,0.00,,,0.00,Wunderground v.1.15,2013-01-16 10:20:00,
2013-01-16 04:25:00,34.3,28.8,30.00,West,273,9.0,11.0,80,0.00,,,0.00,Wunderground v.1.15,2013-01-16 10:25:00,
2013-01-16 04:30:00,34.7,28.9,30.00,West,271,9.0,9.0,79,0.00,,,0.00,Wunderground v.1.15,2013-01-16 10:30:00,
2013-01-16 04:40:00,35.0,29.1,30.00,West,280,9.0,9.0,79,0.00,,,0.00,Wunderground v.1.15,2013-01-16 10:40:00,
2013-01-16 04:50:00,35.2,29.3,30.00,West,276,8.0,11.0,79,0.00,,,0.00,Wunderground v.1.15,2013-01-16 10:50:00,
2013-01-16 05:00:00,36.2,30.3,30.00,WNW,283,8.0,11.0,79,0.00,,,0.00,Wunderground v.1.15,2013-01-16 11:00:00,
2013-01-16 05:10:00,37.2,30.7,30.00,WNW,293,10.0,16.0,77,0.00,,,0.00,Wunderground v.1.15,2013-01-16 11:10:00,
2013-01-16 05:15:00,37.9,30.7,30.00,WNW,294,12.0,16.0,75,0.00,,,0.00,Wunderground v.1.15,2013-01-16 11:15:00,
2013-01-16 05:25:00,38.6,30.7,29.99,WNW,294,12.0,14.0,73,0.00,,,0.00,Wunderground v.1.15,2013-01-16 11:25:00,
2013-01-16 05:35:00,38.8,30.5,30.00,WNW,290,12.0,14.0,72,0.00,,,0.00,Wunderground v.1.15,2013-01-16 11:35:00,
2013-01-16 05:40:00,38.8,30.5,30.00,WNW,295,12.0,12.0,72,0.00,,,0.00,Wunderground v.1.15,2013-01-16 11:40:00,
2013-01-16 05:50:00,38.9,30.3,30.00,WNW,291,13.0,13.0,71,0.00,,,0.00,Wunderground v.1.15,2013-01-16 11:50:00,
2013-01-16 06:00:00,39.1,30.5,30.00,WNW,287,12.0,13.0,71,0.00,,,0.00,Wunderground v.1.15,2013-01-16 12:00:00,
2013-01-16 06:10:00,39.1,30.5,30.01,WNW,298,12.0,17.0,71,0.00,,,0.00,Wunderground v.1.15,2013-01-16 12:10:00,
2013-01-16 06:20:00,39.1,30.5,30.02,WNW,283,12.0,12.0,71,0.00,,,0.00,Wunderground v.1.15,2013-01-16 12:20:00,
2013-01-16 06:25:00,39.2,30.6,30.02,WNW,300,11.0,12.0,71,0.00,,,0.00,Wunderground v.1.15,2013-01-16 12:25:00,
2013-01-16 06:35:00,39.3,30.3,30.02,West,279,9.0,10.0,70,0.00,,,0.00,Wunderground v.1.15,2013-01-16 12:35:00,
2013-01-16 06:40:00,39.0,30.0,30.03,WNW,291,9.0,9.0,70,0.00,,,0.00,Wunderground v.1.15,2013-01-16 12:40:00,
2013-01-16 06:50:00,38.1,29.5,30.03,WNW,284,7.0,8.0,71,0.00,,,0.00,Wunderground v.1.15,2013-01-16 12:50:00,
2013-01-16 07:00:00,37.6,29.4,30.03,WNW,284,9.0,9.0,72,0.00,,,0.00,Wunderground v.1.15,2013-01-16 13:00:00,
2013-01-16 07:10:00,37.2,29.0,30.03,WNW,292,9.0,9.0,72,0.00,,,0.00,Wunderground v.1.15,2013-01-16 13:10:00,
2013-01-16 07:20:00,37.0,28.8,30.03,WNW,295,8.0,9.0,72,0.00,,,0.00,Wunderground v.1.15,2013-01-16 13:20:00,
2013-01-16 07:25:00,36.7,28.9,30.03,WNW,300,8.0,9.0,73,0.00,,,0.00,Wunderground v.1.15,2013-01-16 13:25:00,
2013-01-16 07:35:00,36.6,28.4,30.04,WNW,302,9.0,10.0,72,0.00,,,0.00,Wunderground v.1.15,2013-01-16 13:35:00,
2013-01-16 07:40:00,36.5,28.7,30.04,WNW,298,9.0,10.0,73,0.00,,,0.00,Wunderground v.1.15,2013-01-16 13:40:00,
2013-01-16 07:50:00,36.2,28.4,30.04,WNW,294,8.0,10.0,73,0.00,,,0.00,Wunderground v.1.15,2013-01-16 13:50:00,
2013-01-16 08:00:00,36.2,28.4,30.04,WNW,295,9.0,9.0,73,0.00,,,0.00,Wunderground v.1.15,2013-01-16 14:00:00,
2013-01-16 08:10:00,36.2,28.7,30.04,WNW,289,8.0,8.0,74,0.00,,,0.00,Wunderground v.1.15,2013-01-16 14:10:00,
2013-01-16 08:15:00,36.4,28.9,30.04,WNW,283,8.0,9.0,74,0.00,,,0.00,Wunderground v.1.15,2013-01-16 14:15:00,
2013-01-16 08:25:00,36.8,29.0,30.05,WNW,287,10.0,19.0,73,0.00,,,0.00,Wunderground v.1.15,2013-01-16 14:25:00,
2013-01-16 08:30:00,36.9,29.1,30.04,WNW,284,9.0,19.0,73,0.00,,,0.00,Wunderground v.1.15,2013-01-16 14:30:00,
2013-01-16 08:40:00,37.2,29.0,30.05,WNW,292,8.0,19.0,72,0.00,,,0.00,Wunderground v.1.15,2013-01-16 14:40:00,
2013-01-16 08:50:00,37.1,28.9,30.05,WNW,287,8.0,19.0,72,0.00,,,0.00,Wunderground v.1.15,2013-01-16 14:50:00,
2013-01-16 09:00:00,37.3,29.1,30.06,West,277,10.0,19.0,72,0.00,,,0.00,Wunderground v.1.15,2013-01-16 15:00:00,
2013-01-16 09:05:00,37.4,29.2,30.06,West,278,10.0,19.0,72,0.00,,,0.00,Wunderground v.1.15,2013-01-16 15:05:00,
2013-01-16 09:15:00,37.9,29.3,30.06,West,280,10.0,19.0,71,0.00,,,0.00,Wunderground v.1.15,2013-01-16 15:15:00,
2013-01-16 09:20:00,38.2,29.6,30.06,West,265,10.0,19.0,71,0.00,,,0.00,Wunderground v.1.15,2013-01-16 15:20:00,
2013-01-16 09:30:00,38.2,29.3,30.06,West,272,12.0,12.0,70,0.00,,,0.00,Wunderground v.1.15,2013-01-16 15:30:00,
2013-01-16 09:40:00,38.3,29.7,30.07,West,280,12.0,19.0,71,0.00,,,0.00,Wunderground v.1.15,2013-01-16 15:40:00,
2013-01-16 09:50:00,39.1,30.1,30.07,WNW,289,11.0,19.0,70,0.00,,,0.00,Wunderground v.1.15,2013-01-16 15:50:00,
2013-01-16 10:00:00,40.2,30.1,30.07,West,280,12.0,19.0,67,0.00,,,0.00,Wunderground v.1.15,2013-01-16 16:00:00,
2013-01-16 10:10:00,40.9,30.0,30.07,WNW,292,13.0,19.0,65,0.00,,,0.00,Wunderground v.1.15,2013-01-16 16:10:00,
2013-01-16 10:20:00,41.1,29.8,30.07,West,275,13.0,13.0,64,0.00,,,0.00,Wunderground v.1.15,2013-01-16 16:20:00,
2013-01-16 10:25:00,41.3,30.0,30.08,West,281,13.0,19.0,64,0.00,,,0.00,Wunderground v.1.15,2013-01-16 16:25:00,
2013-01-16 10:30:00,41.6,29.9,30.07,West,270,12.0,19.0,63,0.00,,,0.00,Wunderground v.1.15,2013-01-16 16:30:00,
2013-01-16 10:40:00,42.2,29.7,30.07,West,271,13.0,13.0,61,0.00,,,0.00,Wunderground v.1.15,2013-01-16 16:40:00,
2013-01-16 10:50:00,43.0,29.6,30.06,West,272,11.0,11.0,59,0.00,,,0.00,Wunderground v.1.15,2013-01-16 16:50:00,
2013-01-16 11:00:00,43.7,29.5,30.07,WNW,290,13.0,13.0,57,0.00,,,0.00,Wunderground v.1.15,2013-01-16 17:00:00,
2013-01-16 11:10:00,44.7,28.6,30.07,WNW,296,14.0,19.0,53,0.00,,,0.00,Wunderground v.1.15,2013-01-16 17:10:00,
2013-01-16 11:15:00,45.2,29.1,30.07,WNW,298,15.0,19.0,53,0.00,,,0.00,Wunderground v.1.15,2013-01-16 17:15:00,
2013-01-16 11:20:00,45.6,28.5,30.06,WNW,290,15.0,19.0,51,0.00,,,0.00,Wunderground v.1.15,2013-01-16 17:20:00,
2013-01-16 11:30:00,46.6,28.9,30.06,WNW,294,15.0,21.0,50,0.00,,,0.00,Wunderground v.1.15,2013-01-16 17:30:00,
2013-01-16 11:40:00,47.1,27.9,30.06,NW,307,16.0,19.0,47,0.00,,,0.00,Wunderground v.1.15,2013-01-16 17:40:00,
2013-01-16 11:50:00,47.8,27.5,30.06,NW,307,14.0,19.0,45,0.00,,,0.00,Wunderground v.1.15,2013-01-16 17:50:00,
2013-01-16 11:55:00,48.0,27.6,30.05,NNW,339,13.0,19.0,45,0.00,,,0.00,Wunderground v.1.15,2013-01-16 17:55:00,
2013-01-16 12:00:00,48.1,27.2,30.05,NNW,341,15.0,15.0,44,0.00,,,0.00,Wunderground v.1.15,2013-01-16 18:00:00,
2013-01-16 12:10:00,48.7,27.7,30.04,North,355,14.0,14.0,44,0.00,,,0.01,Wunderground v.1.15,2013-01-16 18:10:00,
2013-01-16 12:20:00,49.4,26.7,30.03,WNW,303,14.0,22.0,41,0.00,,,0.01,Wunderground v.1.15,2013-01-16 18:20:00,
2013-01-16 12:30:00,49.6,26.8,30.03,WNW,293,17.0,17.0,41,0.00,,,0.01,Wunderground v.1.15,2013-01-16 18:30:00,
2013-01-16 12:40:00,49.7,25.7,30.03,NW,318,16.0,16.0,39,0.00,,,0.01,Wunderground v.1.15,2013-01-16 18:40:00,
2013-01-16 12:50:00,50.0,26.0,30.03,WNW,293,15.0,15.0,39,0.00,,,0.01,Wunderground v.1.15,2013-01-16 18:50:00,
2013-01-16 12:55:00,50.1,26.7,30.03,WNW,291,15.0,15.0,40,0.00,,,0.01,Wunderground v.1.15,2013-01-16 18:55:00,
2013-01-16 13:05:00,50.1,26.1,30.03,NW,304,18.0,21.0,39,0.00,,,0.01,Wunderground v.1.15,2013-01-16 19:05:00,
2013-01-16 13:10:00,50.2,26.8,30.03,NW,313,16.0,27.0,40,0.00,,,0.01,Wunderground v.1.15,2013-01-16 19:10:00,
2013-01-16 13:20:00,50.0,26.6,30.03,NW,326,14.0,14.0,40,0.00,,,0.01,Wunderground v.1.15,2013-01-16 19:20:00,
2013-01-16 13:30:00,50.0,26.6,30.03,WNW,286,13.0,16.0,40,0.00,,,0.01,Wunderground v.1.15,2013-01-16 19:30:00,
2013-01-16 13:40:00,50.3,26.9,30.03,North,5,14.0,14.0,40,0.00,,,0.01,Wunderground v.1.15,2013-01-16 19:40:00,
2013-01-16 13:50:00,50.1,26.7,30.04,WNW,290,15.0,15.0,40,0.00,,,0.01,Wunderground v.1.15,2013-01-16 19:50:00,
2013-01-16 13:55:00,50.3,27.5,30.05,NW,318,15.0,24.0,41,0.00,,,0.01,Wunderground v.1.15,2013-01-16 19:55:00,
2013-01-16 14:05:00,50.3,27.5,30.05,NNW,327,14.0,27.0,41,0.00,,,0.01,Wunderground v.1.15,2013-01-16 20:05:00,
2013-01-16 14:10:00,50.5,27.7,30.05,North,5,13.0,13.0,41,0.00,,,0.01,Wunderground v.1.15,2013-01-16 20:10:00,
2013-01-16 14:20:00,50.1,26.7,30.06,NE,35,15.0,15.0,40,0.00,,,0.01,Wunderground v.1.15,2013-01-16 20:20:00,
2013-01-16 14:30:00,50.4,27.6,30.06,NNW,346,12.0,12.0,41,0.00,,,0.01,Wunderground v.1.15,2013-01-16 20:30:00,
2013-01-16 14:40:00,50.0,27.2,30.06,WNW,291,12.0,27.0,41,0.00,,,0.01,Wunderground v.1.15,2013-01-16 20:40:00,
2013-01-16 14:50:00,49.5,27.3,30.07,WNW,297,14.0,27.0,42,0.00,,,0.01,Wunderground v.1.15,2013-01-16 20:50:00,
2013-01-16 14:55:00,49.3,27.2,30.08,NNW,327,13.0,27.0,42,0.00,,,0.01,Wunderground v.1.15,2013-01-16 20:55:00,
2013-01-16 15:00:00,49.2,27.6,30.08,NNW,329,12.0,27.0,43,0.00,,,0.01,Wunderground v.1.15,2013-01-16 21:00:00,
2013-01-16 15:10:00,48.9,27.4,30.08,WNW,302,14.0,27.0,43,0.00,,,0.01,Wunderground v.1.15,2013-01-16 21:10:00,
2013-01-16 15:20:00,49.1,28.1,30.09,NNW,329,11.0,27.0,44,0.00,,,0.01,Wunderground v.1.15,2013-01-16 21:20:00,
2013-01-16 15:30:00,49.2,28.2,30.10,NW,322,9.0,9.0,44,0.00,,,0.01,Wunderground v.1.15,2013-01-16 21:30:00,
2013-01-16 15:40:00,48.6,27.6,30.10,WNW,297,12.0,27.0,44,0.00,,,0.01,Wunderground v.1.15,2013-01-16 21:40:00,
2013-01-16 15:50:00,48.2,27.3,30.10,NNW,329,10.0,10.0,44,0.00,,,0.01,Wunderground v.1.15,2013-01-16 21:50:00,
2013-01-16 15:55:00,48.2,27.8,30.10,NNW,341,8.0,27.0,45,0.00,,,0.01,Wunderground v.1.15,2013-01-16 21:55:00,
2013-01-16 16:00:00,48.1,27.7,30.10,NNW,327,8.0,8.0,45,0.00,,,0.01,Wunderground v.1.15,2013-01-16 22:00:00,
2013-01-16 16:10:00,48.0,28.2,30.11,NW,319,8.0,8.0,46,0.00,,,0.01,Wunderground v.1.15,2013-01-16 22:10:00,
2013-01-16 16:20:00,47.7,27.9,30.12,NNW,333,7.0,7.0,46,0.00,,,0.01,Wunderground v.1.15,2013-01-16 22:20:00,
2013-01-16 16:30:00,47.2,28.0,30.13,NW,317,8.0,8.0,47,0.00,,,0.01,Wunderground v.1.15,2013-01-16 22:30:00,
2013-01-16 16:40:00,46.7,28.0,30.14,NNW,332,7.0,7.0,48,0.00,,,0.01,Wunderground v.1.15,2013-01-16 22:40:00,
2013-01-16 16:45:00,46.4,28.3,30.14,North,350,6.0,9.0,49,0.00,,,0.01,Wunderground v.1.15,2013-01-16 22:45:00,
2013-01-16 16:55:00,45.8,28.2,30.15,NNW,348,6.0,7.0,50,0.00,,,0.01,Wunderground v.1.15,2013-01-16 22:55:00,
2013-01-16 17:00:00,45.4,28.3,30.16,WNW,300,6.0,27.0,51,0.00,,,0.01,Wunderground v.1.15,2013-01-16 23:00:00,
2013-01-16 17:10:00,44.6,28.0,30.17,North,5,6.0,27.0,52,0.00,,,0.01,Wunderground v.1.15,2013-01-16 23:10:00,
2013-01-16 17:20:00,43.7,28.1,30.17,NW,319,5.0,5.0,54,0.00,,,0.01,Wunderground v.1.15,2013-01-16 23:20:00,
2013-01-16 17:30:00,42.9,28.3,30.17,NNW,330,5.0,5.0,56,0.00,,,0.01,Wunderground v.1.15,2013-01-16 23:30:00,
2013-01-16 17:40:00,41.5,27.8,30.18,NNW,341,5.0,27.0,58,0.00,,,0.01,Wunderground v.1.15,2013-01-16 23:40:00,
2013-01-16 17:50:00,41.1,28.3,30.19,North,350,4.0,4.0,60,0.00,,,0.01,Wunderground v.1.15,2013-01-16 23:50:00,
2013-01-16 17:55:00,41.1,28.3,30.19,NW,314,4.0,27.0,60,0.00,,,0.01,Wunderground v.1.15,2013-01-16 23:55:00,
2013-01-16 18:00:00,41.2,28.4,30.19,WNW,290,5.0,8.0,60,0.00,,,0.01,Wunderground v.1.15,2013-01-17 00:00:00,
2013-01-16 18:10:00,41.1,28.3,30.19,NNW,340,7.0,7.0,60,0.00,,,0.01,Wunderground v.1.15,2013-01-17 00:10:00,
2013-01-16 18:20:00,40.3,27.9,30.20,NNW,342,6.0,7.0,61,0.00,,,0.01,Wunderground v.1.15,2013-01-17 00:20:00,
2013-01-16 18:30:00,39.9,27.9,30.20,NNW,330,5.0,5.0,62,0.00,,,0.01,Wunderground v.1.15,2013-01-17 00:30:00,
2013-01-16 18:40:00,39.6,28.0,30.21,NW,323,5.0,5.0,63,0.00,,,0.01,Wunderground v.1.15,2013-01-17 00:40:00,
2013-01-16 18:45:00,39.5,27.9,30.21,North,5,5.0,5.0,63,0.00,,,0.01,Wunderground v.1.15,2013-01-17 00:45:00,
2013-01-16 18:50:00,39.3,28.1,30.22,North,360,5.0,6.0,64,0.00,,,0.01,Wunderground v.1.15,2013-01-17 00:50:00,
2013-01-16 19:00:00,38.5,28.1,30.22,NNW,342,5.0,5.0,66,0.00,,,0.01,Wunderground v.1.15,2013-01-17 01:00:00,
2013-01-16 19:10:00,38.0,28.0,30.22,NNW,334,5.0,5.0,67,0.00,,,0.01,Wunderground v.1.15,2013-01-17 01:10:00,
2013-01-16 19:20:00,37.6,28.0,30.22,NNW,344,5.0,5.0,68,0.00,,,0.01,Wunderground v.1.15,2013-01-17 01:20:00,
2013-01-16 19:30:00,37.3,28.1,30.22,NNW,331,4.0,4.0,69,0.00,,,0.01,Wunderground v.1.15,2013-01-17 01:30:00,
2013-01-16 19:35:00,37.3,28.1,30.23,NNW,332,4.0,4.0,69,0.00,,,0.01,Wunderground v.1.15,2013-01-17 01:35:00,
2013-01-16 19:45:00,37.3,28.1,30.23,NNW,331,4.0,5.0,69,0.00,,,0.01,Wunderground v.1.15,2013-01-17 01:45:00,
2013-01-16 19:55:00,36.5,27.6,30.23,NNW,345,4.0,4.0,70,0.00,,,0.01,Wunderground v.1.15,2013-01-17 01:55:00,
2013-01-16 20:00:00,36.2,27.7,30.24,NNW,348,4.0,4.0,71,0.00,,,0.01,Wunderground v.1.15,2013-01-17 02:00:00,
2013-01-16 20:10:00,35.6,27.5,30.24,NNW,341,3.0,3.0,72,0.00,,,0.01,Wunderground v.1.15,2013-01-17 02:10:00,
2013-01-16 20:15:00,35.4,27.6,30.24,NNW,336,3.0,12.0,73,0.00,,,0.01,Wunderground v.1.15,2013-01-17 02:15:00,
2013-01-16 20:25:00,35.5,28.0,30.25,NW,323,3.0,12.0,74,0.00,,,0.01,Wunderground v.1.15,2013-01-17 02:25:00,
2013-01-16 20:30:00,35.5,28.0,30.25,NNW,327,2.0,12.0,74,0.00,,,0.01,Wunderground v.1.15,2013-01-17 02:30:00,
2013-01-16 20:35:00,35.5,28.0,30.25,NNW,327,2.0,12.0,74,0.00,,,0.01,Wunderground v.1.15,2013-01-17 02:35:00,
2013-01-16 20:45:00,35.5,28.4,30.25,NW,326,3.0,12.0,75,0.00,,,0.01,Wunderground v.1.15,2013-01-17 02:45:00,
2013-01-16 20:50:00,35.4,28.3,30.25,NNW,335,3.0,12.0,75,0.00,,,0.01,Wunderground v.1.15,2013-01-17 02:50:00,
2013-01-16 21:00:00,35.3,28.2,30.26,NNW,332,3.0,12.0,75,0.00,,,0.01,Wunderground v.1.15,2013-01-17 03:00:00,
2013-01-16 21:10:00,35.2,28.4,30.26,NNW,333,4.0,12.0,76,0.00,,,0.01,Wunderground v.1.15,2013-01-17 03:10:00,
2013-01-16 21:20:00,35.5,28.7,30.26,NNW,338,4.0,4.0,76,0.00,,,0.01,Wunderground v.1.15,2013-01-17 03:20:00,
2013-01-16 21:25:00,35.3,28.5,30.26,NNW,341,3.0,5.0,76,0.00,,,0.01,Wunderground v.1.15,2013-01-17 03:25:00,
2013-01-16 21:30:00,35.3,28.8,30.26,NNW,347,3.0,12.0,77,0.00,,,0.01,Wunderground v.1.15,2013-01-17 03:30:00,
2013-01-16 21:40:00,34.9,28.1,30.27,NNW,348,1.0,12.0,76,0.00,,,0.01,Wunderground v.1.15,2013-01-17 03:40:00,
2013-01-16 21:50:00,34.3,27.8,30.28,North,350,2.0,12.0,77,0.00,,,0.01,Wunderground v.1.15,2013-01-17 03:50:00,
2013-01-16 22:00:00,33.4,27.0,30.29,North,350,2.0,12.0,77,0.00,,,0.01,Wunderground v.1.15,2013-01-17 04:00:00,
2013-01-16 22:10:00,32.5,26.4,30.29,North,350,2.0,12.0,78,0.00,,,0.01,Wunderground v.1.15,2013-01-17 04:10:00,
2013-01-16 22:15:00,32.1,26.3,30.30,North,350,2.0,12.0,79,0.00,,,0.01,Wunderground v.1.15,2013-01-17 04:15:00,
2013-01-16 22:20:00,31.8,26.0,30.30,North,350,1.0,12.0,79,0.00,,,0.01,Wunderground v.1.15,2013-01-17 04:20:00,
2013-01-16 22:30:00,31.5,26.3,30.31,North,349,1.0,1.0,81,0.00,,,0.01,Wunderground v.1.15,2013-01-17 04:30:00,
2013-01-16 22:40:00,31.1,26.0,30.30,North,349,0.0,12.0,81,0.00,,,0.01,Wunderground v.1.15,2013-01-17 04:40:00,
2013-01-16 22:50:00,30.2,25.1,30.31,North,349,0.0,12.0,81,0.00,,,0.01,Wunderground v.1.15,2013-01-17 04:50:00,
2013-01-16 23:05:00,29.3,24.5,30.32,North,349,0.0,12.0,82,0.00,,,0.00,Wunderground v.1.15,2013-01-17 05:05:00,
2013-01-16 23:10:00,29.4,24.9,30.32,North,349,1.0,12.0,83,0.00,,,0.00,Wunderground v.1.15,2013-01-17 05:10:00,
2013-01-16 23:15:00,29.4,24.9,30.32,North,349,1.0,12.0,83,0.00,,,0.00,Wunderground v.1.15,2013-01-17 05:15:00,
2013-01-16 23:25:00,29.3,25.1,30.32,North,349,1.0,12.0,84,0.00,,,0.00,Wunderground v.1.15,2013-01-17 05:25:00,
2013-01-16 23:30:00,29.1,24.9,30.33,North,349,0.0,12.0,84,0.00,,,0.00,Wunderground v.1.15,2013-01-17 05:30:00,
2013-01-16 23:40:00,27.9,23.4,30.32,North,349,0.0,12.0,83,0.00,,,0.00,Wunderground v.1.15,2013-01-17 05:40:00,
2013-01-16 23:50:00,27.6,23.4,30.32,North,349,0.0,12.0,84,0.00,,,0.00,Wunderground v.1.15,2013-01-17 05:50:00,